createdAt,value
2023-10-30T00:01:19.162Z,96037.38
2023-10-30T00:03:46.278Z,96035.75
2023-10-30T00:06:13.382Z,96037.13
2023-10-30T00:08:40.411Z,96045.31
2023-10-30T00:11:07.400Z,96043.75
2023-10-30T00:13:34.383Z,96047.31
2023-10-30T00:16:01.321Z,96046.53
2023-10-30T00:18:28.424Z,96047.66
2023-10-30T00:20:55.375Z,96045.72
2023-10-30T00:23:22.370Z,96056.13
2023-10-30T00:25:49.359Z,96040.56
2023-10-30T00:28:16.311Z,96041.75
2023-10-30T00:30:43.319Z,96039.13
2023-10-30T00:33:10.371Z,96036.72
2023-10-30T00:35:37.460Z,96031.00
2023-10-30T00:38:04.450Z,96036.34
2023-10-30T00:40:31.379Z,96036.97
2023-10-30T00:42:58.353Z,96029.69
2023-10-30T00:45:25.334Z,96029.78
2023-10-30T00:47:52.332Z,96038.53
2023-10-30T00:50:20.559Z,96037.19
2023-10-30T00:52:47.473Z,96037.22
2023-10-30T00:55:14.443Z,96040.44
2023-10-30T00:57:41.501Z,96043.06
2023-10-30T01:00:08.539Z,96032.84
2023-10-30T01:02:35.636Z,96034.56
2023-10-30T01:05:03.102Z,96029.19
2023-10-30T01:07:30.339Z,96048.19
2023-10-30T01:09:57.339Z,96033.56
2023-10-30T01:12:24.334Z,96032.53
2023-10-30T01:14:51.436Z,96025.84
2023-10-30T01:17:18.348Z,96023.13
2023-10-30T01:19:45.318Z,96028.88
2023-10-30T01:22:12.310Z,96027.38
2023-10-30T01:24:39.289Z,96028.31
2023-10-30T01:27:06.492Z,96027.16
2023-10-30T01:29:33.518Z,96017.78
2023-10-30T01:32:00.434Z,96014.31
2023-10-30T01:34:27.456Z,96012.88
2023-10-30T01:36:54.539Z,96009.78
2023-10-30T01:39:21.575Z,96006.88
2023-10-30T01:41:48.558Z,96009.84
2023-10-30T01:44:15.573Z,96004.22
2023-10-30T01:46:42.574Z,96018.22
2023-10-30T01:49:09.529Z,96010.09
2023-10-30T01:51:36.550Z,96000.34
2023-10-30T01:54:03.579Z,95997.84
2023-10-30T01:56:30.530Z,95994.84
2023-10-30T01:58:57.510Z,95984.09
2023-10-30T02:01:24.439Z,95982.50
2023-10-30T02:03:51.464Z,95982.75
2023-10-30T02:06:18.488Z,95990.75
2023-10-30T02:08:45.492Z,95986.22
2023-10-30T02:11:12.540Z,95990.75
2023-10-30T02:13:39.430Z,95986.28
2023-10-30T02:16:06.380Z,95989.47
2023-10-30T02:18:33.403Z,95992.72
2023-10-30T02:21:00.378Z,95991.44
2023-10-30T02:23:27.331Z,95989.25
2023-10-30T02:25:54.256Z,95988.94
2023-10-30T02:28:21.251Z,95988.50
2023-10-30T02:30:48.150Z,95984.75
2023-10-30T02:33:15.273Z,95982.06
2023-10-30T02:35:42.380Z,95982.09
2023-10-30T02:38:09.370Z,95976.13
2023-10-30T02:40:36.336Z,95981.25
2023-10-30T02:43:03.285Z,95979.97
2023-10-30T02:45:30.359Z,95982.16
2023-10-30T02:47:57.495Z,95993.13
2023-10-30T02:50:24.492Z,95977.53
2023-10-30T02:52:51.487Z,95983.19
2023-10-30T02:55:18.381Z,95975.41
2023-10-30T03:00:22.066Z,95977.81
2023-10-30T03:02:49.241Z,95958.69
2023-10-30T03:05:16.407Z,95954.94
2023-10-30T03:07:43.462Z,95966.81
2023-10-30T03:10:10.380Z,95975.66
2023-10-30T03:12:37.296Z,95973.25
2023-10-30T03:15:04.328Z,95962.47
2023-10-30T03:17:31.389Z,95962.50
2023-10-30T03:19:58.454Z,95966.00
2023-10-30T03:22:25.385Z,95967.59
2023-10-30T03:24:52.362Z,95965.72
2023-10-30T03:27:19.350Z,95960.34
2023-10-30T03:29:46.337Z,95964.91
2023-10-30T03:32:13.278Z,95962.47
2023-10-30T03:34:40.185Z,95967.34
2023-10-30T03:37:07.155Z,95972.72
2023-10-30T03:39:34.086Z,95968.41
2023-10-30T03:42:01.034Z,95970.81
2023-10-30T03:44:27.974Z,95962.50
2023-10-30T03:46:54.856Z,95971.91
2023-10-30T03:49:21.774Z,95978.91
2023-10-30T03:51:48.806Z,95975.41
2023-10-30T03:54:15.764Z,95979.72
2023-10-30T03:56:42.774Z,95980.25
2023-10-30T03:59:09.674Z,95979.97
2023-10-30T04:01:36.665Z,95977.81
2023-10-30T04:04:03.720Z,95965.47
2023-10-30T04:06:30.966Z,95968.97
2023-10-30T04:08:57.937Z,95968.69
2023-10-30T04:11:24.915Z,95972.22
2023-10-30T04:13:51.814Z,95968.19
2023-10-30T04:16:18.812Z,95973.31
2023-10-30T04:18:45.820Z,95968.19
2023-10-30T04:21:12.800Z,95959.28
2023-10-30T04:23:39.803Z,95952.88
2023-10-30T04:26:06.735Z,95955.28
2023-10-30T04:28:33.615Z,95953.69
2023-10-30T04:31:00.588Z,95959.09
2023-10-30T04:33:27.485Z,95967.41
2023-10-30T04:35:54.515Z,95959.88
2023-10-30T04:38:21.456Z,95948.59
2023-10-30T04:40:48.374Z,95956.94
2023-10-30T04:43:15.315Z,95945.09
2023-10-30T04:45:42.310Z,95940.00
2023-10-30T04:48:09.257Z,95949.13
2023-10-30T04:50:36.154Z,95942.69
2023-10-30T04:53:03.105Z,95939.72
2023-10-30T04:55:30.058Z,95934.34
2023-10-30T04:57:56.880Z,95933.81
2023-10-30T05:00:23.819Z,95930.06
2023-10-30T05:02:50.802Z,95915.78
2023-10-30T05:05:17.758Z,95912.03
2023-10-30T05:07:47.195Z,95925.16
2023-10-30T05:10:15.239Z,95921.69
2023-10-30T05:12:42.221Z,95920.59
2023-10-30T05:15:09.206Z,95921.72
2023-10-30T05:17:36.244Z,95905.31
2023-10-30T05:20:03.287Z,95909.59
2023-10-30T05:22:30.213Z,95919.56
2023-10-30T05:24:57.125Z,95923.06
2023-10-30T05:27:24.077Z,95918.50
2023-10-30T05:29:51.062Z,95920.94
2023-10-30T05:32:17.999Z,95930.03
2023-10-30T05:34:45.080Z,95923.31
2023-10-30T05:37:12.032Z,95925.75
2023-10-30T05:39:38.981Z,95926.03
2023-10-30T05:42:05.941Z,95926.81
2023-10-30T05:44:32.836Z,95915.28
2023-10-30T05:46:59.762Z,95914.19
2023-10-30T05:49:26.767Z,95922.53
2023-10-30T05:51:53.652Z,95914.44
2023-10-30T05:54:20.591Z,95914.44
2023-10-30T05:56:49.563Z,95921.19
2023-10-30T05:59:16.584Z,95911.78
2023-10-30T06:01:43.583Z,95919.59
2023-10-30T06:04:10.667Z,95916.34
2023-10-30T06:06:37.651Z,95913.13
2023-10-30T06:09:04.616Z,95912.31
2023-10-30T06:11:32.599Z,95911.78
2023-10-30T06:13:59.560Z,95915.25
2023-10-30T06:16:26.431Z,95912.88
2023-10-30T06:18:53.430Z,95902.13
2023-10-30T06:21:20.530Z,95904.81
2023-10-30T06:23:47.429Z,95906.41
2023-10-30T06:26:14.377Z,95907.22
2023-10-30T06:28:41.295Z,95909.38
2023-10-30T06:31:08.315Z,95904.53
2023-10-30T06:33:35.304Z,95909.63
2023-10-30T06:36:02.411Z,95902.66
2023-10-30T06:38:29.375Z,95908.00
2023-10-30T06:40:56.320Z,95909.59
2023-10-30T06:43:23.338Z,95904.75
2023-10-30T06:45:50.390Z,95903.63
2023-10-30T06:48:17.398Z,95900.97
2023-10-30T06:50:44.456Z,95901.75
2023-10-30T06:53:11.394Z,95906.34
2023-10-30T06:55:38.356Z,95906.91
2023-10-30T06:58:05.341Z,95905.81
2023-10-30T07:00:32.294Z,95908.72
2023-10-30T07:02:59.427Z,95909.22
2023-10-30T07:05:26.576Z,95909.53
2023-10-30T07:07:53.456Z,95907.63
2023-10-30T07:10:20.442Z,95900.91
2023-10-30T07:12:47.427Z,95888.75
2023-10-30T07:15:14.437Z,95893.59
2023-10-30T07:17:41.502Z,95889.56
2023-10-30T07:20:08.416Z,95897.59
2023-10-30T07:22:35.398Z,95894.28
2023-10-30T07:25:02.328Z,95885.78
2023-10-30T07:27:29.335Z,95901.41
2023-10-30T07:29:56.258Z,95908.16
2023-10-30T07:32:23.153Z,95903.38
2023-10-30T07:34:50.297Z,95896.38
2023-10-30T07:37:17.458Z,95889.31
2023-10-30T07:39:44.443Z,95896.81
2023-10-30T07:42:11.375Z,95895.72
2023-10-30T07:44:38.251Z,95890.31
2023-10-30T07:47:05.223Z,95887.66
2023-10-30T07:49:32.205Z,95872.00
2023-10-30T07:51:59.187Z,95871.72
2023-10-30T07:54:26.191Z,95872.00
2023-10-30T07:56:53.159Z,95876.53
2023-10-30T07:59:20.281Z,95862.56
2023-10-30T08:01:47.281Z,95855.25
2023-10-30T08:04:14.430Z,95847.13
2023-10-30T08:06:41.538Z,95843.91
2023-10-30T08:09:08.593Z,95846.50
2023-10-30T08:11:35.527Z,95844.09
2023-10-30T08:14:02.498Z,95843.53
2023-10-30T08:16:29.525Z,95850.66
2023-10-30T08:18:56.507Z,95849.03
2023-10-30T08:21:23.563Z,95851.78
2023-10-30T08:23:50.522Z,95843.53
2023-10-30T08:26:17.465Z,95840.91
2023-10-30T08:28:44.381Z,95841.56
2023-10-30T08:31:11.527Z,95841.41
2023-10-30T08:33:38.582Z,95846.34
2023-10-30T08:36:05.577Z,95844.78
2023-10-30T08:38:32.642Z,95839.19
2023-10-30T08:40:59.560Z,95835.50
2023-10-30T08:43:26.638Z,95838.53
2023-10-30T08:45:53.634Z,95829.63
2023-10-30T08:48:20.661Z,95834.84
2023-10-30T08:50:47.678Z,95835.81
2023-10-30T08:53:14.790Z,95838.22
2023-10-30T08:55:41.796Z,95826.28
2023-10-30T08:58:08.961Z,95829.13
2023-10-30T09:00:36.227Z,95825.38
2023-10-30T09:03:03.308Z,95838.38
2023-10-30T09:05:30.641Z,95842.22
2023-10-30T09:07:57.697Z,95848.03
2023-10-30T09:10:24.648Z,95848.16
2023-10-30T09:12:51.661Z,95844.41
2023-10-30T09:15:18.617Z,95845.66
2023-10-30T09:17:45.571Z,95849.00
2023-10-30T09:20:12.647Z,95854.00
2023-10-30T09:22:39.676Z,95847.53
2023-10-30T09:25:06.595Z,95852.38
2023-10-30T09:27:33.618Z,95850.19
2023-10-30T09:30:00.578Z,95859.81
2023-10-30T09:32:27.547Z,95845.59
2023-10-30T09:34:54.497Z,95844.56
2023-10-30T09:37:21.486Z,95859.94
2023-10-30T09:39:48.681Z,95868.44
2023-10-30T09:42:15.758Z,95875.75
2023-10-30T09:44:42.775Z,95878.09
2023-10-30T09:47:09.775Z,95876.25
2023-10-30T09:49:36.702Z,95857.53
2023-10-30T09:52:03.759Z,95867.00
2023-10-30T09:54:30.785Z,95894.81
2023-10-30T09:56:57.863Z,95900.75
2023-10-30T09:59:24.809Z,95931.59
2023-10-30T10:01:51.883Z,95896.22
2023-10-30T10:04:18.981Z,95910.66
2023-10-30T10:06:46.059Z,95886.84
2023-10-30T10:09:13.070Z,95867.47
2023-10-30T10:11:40.047Z,95847.97
2023-10-30T10:14:07.510Z,95844.47
2023-10-30T10:16:34.821Z,95834.56
2023-10-30T10:19:01.817Z,95847.22
2023-10-30T10:21:28.788Z,95876.53
2023-10-30T10:23:55.879Z,95903.34
2023-10-30T10:26:23.294Z,95906.72
2023-10-30T10:28:50.206Z,95896.34
2023-10-30T10:31:17.134Z,95911.03
2023-10-30T10:33:45.171Z,95912.75
2023-10-30T10:36:12.565Z,95891.22
2023-10-30T10:38:39.470Z,95896.00
2023-10-30T10:41:06.477Z,95887.53
2023-10-30T10:43:33.396Z,95886.59
2023-10-30T10:46:00.557Z,95863.81
2023-10-30T10:48:27.583Z,95852.72
2023-10-30T10:50:54.503Z,95841.88
2023-10-30T10:53:21.477Z,95838.19
2023-10-30T10:55:48.498Z,95832.00
2023-10-30T10:58:15.462Z,95832.03
2023-10-30T11:00:42.461Z,95825.22
2023-10-30T11:03:09.536Z,95815.34
2023-10-30T11:05:36.558Z,95820.44
2023-10-30T11:08:03.585Z,95794.16
2023-10-30T11:10:30.595Z,95780.06
2023-10-30T11:12:57.661Z,95778.44
2023-10-30T11:15:24.692Z,95780.75
2023-10-30T11:17:51.655Z,95779.97
2023-10-30T11:20:18.636Z,95769.88
2023-10-30T11:22:45.555Z,95747.41
2023-10-30T11:25:12.488Z,95734.66
2023-10-30T11:27:39.434Z,95718.91
2023-10-30T11:30:06.430Z,95705.75
2023-10-30T11:32:33.467Z,95700.97
2023-10-30T11:35:00.477Z,95691.94
2023-10-30T11:37:27.396Z,95684.28
2023-10-30T11:39:54.422Z,95679.75
2023-10-30T11:42:21.335Z,95664.50
2023-10-30T11:44:48.449Z,95659.25
2023-10-30T11:47:15.516Z,95663.56
2023-10-30T11:49:42.446Z,95655.31
2023-10-30T11:52:09.435Z,95650.28
2023-10-30T11:54:36.435Z,95649.91
2023-10-30T11:57:03.419Z,95645.94
2023-10-30T11:59:30.476Z,95628.09
2023-10-30T12:01:57.514Z,95622.66
2023-10-30T12:04:24.612Z,95610.16
2023-10-30T12:06:52.178Z,95598.75
2023-10-30T12:09:19.548Z,95592.34
2023-10-30T12:11:46.995Z,95589.78
2023-10-30T12:14:15.606Z,95603.69
2023-10-30T12:16:42.745Z,95611.47
2023-10-30T12:19:10.067Z,95640.63
2023-10-30T12:21:37.224Z,95663.41
2023-10-30T12:24:04.475Z,95678.78
2023-10-30T12:26:32.394Z,95707.00
2023-10-30T12:28:59.432Z,95721.19
2023-10-30T12:31:26.591Z,95721.31
2023-10-30T12:33:53.772Z,95718.72
2023-10-30T12:36:22.596Z,95710.19
2023-10-30T12:38:49.608Z,95705.34
2023-10-30T12:41:16.612Z,95698.69
2023-10-30T12:43:43.636Z,95686.31
2023-10-30T12:46:10.669Z,95678.16
2023-10-30T12:48:37.785Z,95679.47
2023-10-30T12:51:04.851Z,95676.66
2023-10-30T12:53:31.819Z,95696.91
2023-10-30T12:55:58.737Z,95706.28
2023-10-30T12:58:27.276Z,95704.97
2023-10-30T13:03:24.507Z,95714.38
2023-10-30T13:05:51.604Z,95696.94
2023-10-30T13:08:18.535Z,95692.88
2023-10-30T13:10:45.538Z,95680.50
2023-10-30T13:13:12.554Z,95674.56
2023-10-30T13:15:39.557Z,95676.34
2023-10-30T13:18:06.769Z,95680.28
2023-10-30T13:20:33.733Z,95677.28
2023-10-30T13:23:00.701Z,95653.44
2023-10-30T13:25:27.644Z,95645.22
2023-10-30T13:27:54.651Z,95641.44
2023-10-30T13:30:21.642Z,95661.56
2023-10-30T13:32:48.601Z,95668.31
2023-10-30T13:35:15.652Z,95676.16
2023-10-30T13:37:42.641Z,95682.41
2023-10-30T13:40:09.705Z,95690.75
2023-10-30T13:42:36.793Z,95687.88
2023-10-30T13:45:03.693Z,95691.25
2023-10-30T13:47:30.657Z,95698.06
2023-10-30T13:49:57.692Z,95696.66
2023-10-30T13:52:24.654Z,95692.63
2023-10-30T13:54:51.821Z,95703.00
2023-10-30T13:57:19.023Z,95702.44
2023-10-30T13:59:46.042Z,95704.31
2023-10-30T14:02:13.483Z,95706.94
2023-10-30T14:04:40.560Z,95721.06
2023-10-30T14:07:07.600Z,95740.06
2023-10-30T14:09:34.641Z,95737.94
2023-10-30T14:12:01.620Z,95754.59
2023-10-30T14:14:28.627Z,95751.25
2023-10-30T14:16:55.640Z,95748.69
2023-10-30T14:19:22.656Z,95764.22
2023-10-30T14:21:49.686Z,95772.31
2023-10-30T14:24:16.658Z,95753.72
2023-10-30T14:26:43.656Z,95757.16
2023-10-30T14:29:10.625Z,95745.22
2023-10-30T14:31:37.652Z,95738.31
2023-10-30T14:34:04.760Z,95739.09
2023-10-30T14:36:31.794Z,95726.44
2023-10-30T14:38:58.796Z,95729.09
2023-10-30T14:41:25.756Z,95736.09
2023-10-30T14:43:52.721Z,95748.56
2023-10-30T14:46:19.726Z,95757.13
2023-10-30T14:48:46.728Z,95752.31
2023-10-30T14:51:13.799Z,95754.38
2023-10-30T14:53:40.736Z,95756.84
2023-10-30T14:56:07.735Z,95751.69
2023-10-30T14:58:34.844Z,95754.13
2023-10-30T15:01:01.900Z,95764.47
2023-10-30T15:03:29.063Z,95769.34
2023-10-30T15:05:56.269Z,95767.72
2023-10-30T15:08:23.203Z,95760.91
2023-10-30T15:10:50.120Z,95765.06
2023-10-30T15:13:17.074Z,95761.41
2023-10-30T15:15:44.215Z,95774.00
2023-10-30T15:18:11.329Z,95776.19
2023-10-30T15:20:38.335Z,95773.06
2023-10-30T15:23:05.498Z,95766.91
2023-10-30T15:25:32.479Z,95772.47
2023-10-30T15:27:59.537Z,95769.44
2023-10-30T15:30:26.540Z,95768.63
2023-10-30T15:32:53.493Z,95772.72
2023-10-30T15:35:20.453Z,95751.75
2023-10-30T15:37:47.460Z,95756.47
2023-10-30T15:40:14.425Z,95759.13
2023-10-30T15:42:41.468Z,95761.22
2023-10-30T15:45:08.476Z,95757.41
2023-10-30T15:47:36.321Z,95747.22
2023-10-30T15:50:03.556Z,95749.66
2023-10-30T15:57:34.091Z,95760.91
2023-10-30T16:00:01.017Z,95752.56
2023-10-30T16:02:30.183Z,95751.72
2023-10-30T16:05:01.979Z,95753.75
2023-10-30T16:07:30.012Z,95752.25
2023-10-30T16:12:26.799Z,95752.09
2023-10-30T16:14:53.779Z,95741.81
2023-10-30T16:17:20.807Z,95744.72
2023-10-30T16:20:22.137Z,95744.91
2023-10-30T16:22:34.753Z,95751.00
2023-10-30T16:25:01.723Z,95753.41
2023-10-30T16:27:28.624Z,95755.75
2023-10-30T16:29:55.597Z,95758.06
2023-10-30T16:32:22.567Z,95764.34
2023-10-30T16:34:49.646Z,95766.63
2023-10-30T16:37:16.768Z,95762.75
2023-10-30T16:39:43.846Z,95775.16
2023-10-30T16:42:11.014Z,95779.56
2023-10-30T16:44:38.104Z,95777.00
2023-10-30T16:47:05.187Z,95774.25
2023-10-30T16:49:32.463Z,95778.28
2023-10-30T16:51:59.550Z,95783.47
2023-10-30T16:54:26.582Z,95787.25
2023-10-30T16:56:53.520Z,95792.56
2023-10-30T16:59:20.522Z,95800.50
2023-10-30T17:01:47.554Z,95803.34
2023-10-30T17:04:14.462Z,95803.03
2023-10-30T17:06:41.485Z,95808.31
2023-10-30T17:09:08.435Z,95809.81
2023-10-30T17:11:35.631Z,95815.09
2023-10-30T17:14:02.724Z,95808.06
2023-10-30T17:16:29.772Z,95820.59
2023-10-30T17:18:56.764Z,95822.22
2023-10-30T17:21:23.733Z,95833.09
2023-10-30T17:23:50.680Z,95835.47
2023-10-30T17:26:17.719Z,95828.75
2023-10-30T17:28:44.694Z,95848.41
2023-10-30T17:31:11.763Z,95842.16
2023-10-30T17:33:38.644Z,95843.28
2023-10-30T17:36:05.695Z,95843.81
2023-10-30T17:38:32.646Z,95842.72
2023-10-30T17:40:59.693Z,95848.91
2023-10-30T17:43:26.783Z,95851.59
2023-10-30T17:45:53.783Z,95864.75
2023-10-30T17:48:20.796Z,95863.97
2023-10-30T17:50:47.844Z,95866.38
2023-10-30T17:53:14.878Z,95874.03
2023-10-30T17:55:41.865Z,95879.81
2023-10-30T17:58:08.834Z,95871.22
2023-10-30T18:00:35.837Z,95877.63
2023-10-30T18:03:02.917Z,95891.00
2023-10-30T18:05:29.913Z,95882.25
2023-10-30T18:07:56.818Z,95885.47
2023-10-30T18:10:23.942Z,95882.50
2023-10-30T18:12:51.061Z,95882.22
2023-10-30T18:15:18.075Z,95888.03
2023-10-30T18:17:45.053Z,95881.69
2023-10-30T18:20:12.057Z,95886.13
2023-10-30T18:22:39.059Z,95875.47
2023-10-30T18:25:06.295Z,95874.16
2023-10-30T18:27:33.495Z,95868.53
2023-10-30T18:30:00.572Z,95865.31
2023-10-30T18:32:27.592Z,95864.50
2023-10-30T18:34:54.651Z,95859.13
2023-10-30T18:37:21.716Z,95863.09
2023-10-30T18:39:49.053Z,95856.38
2023-10-30T18:42:16.197Z,95853.66
2023-10-30T18:44:43.268Z,95847.44
2023-10-30T18:47:10.357Z,95848.78
2023-10-30T18:49:37.384Z,95856.34
2023-10-30T18:52:04.468Z,95847.44
2023-10-30T18:54:31.442Z,95836.06
2023-10-30T18:56:58.423Z,95825.91
2023-10-30T18:59:25.481Z,95807.09
2023-10-30T19:01:52.515Z,95789.00
2023-10-30T19:04:19.479Z,95787.91
2023-10-30T19:06:46.499Z,95810.47
2023-10-30T19:09:13.457Z,95845.00
2023-10-30T19:11:40.457Z,95860.31
2023-10-30T19:14:07.403Z,95866.53
2023-10-30T19:16:34.528Z,95859.84
2023-10-30T19:19:01.503Z,95856.00
2023-10-30T19:21:28.470Z,95859.66
2023-10-30T19:23:55.523Z,95869.34
2023-10-30T19:26:22.448Z,95873.69
2023-10-30T19:28:49.456Z,95876.06
2023-10-30T19:31:16.550Z,95889.53
2023-10-30T19:33:43.567Z,95874.72
2023-10-30T19:36:10.558Z,95891.03
2023-10-30T19:38:37.506Z,95882.25
2023-10-30T19:41:04.501Z,95892.56
2023-10-30T19:43:31.517Z,95891.00
2023-10-30T19:45:58.570Z,95881.28
2023-10-30T19:48:25.527Z,95882.28
2023-10-30T19:50:52.457Z,95886.00
2023-10-30T19:53:19.436Z,95893.69
2023-10-30T19:55:46.455Z,95896.56
2023-10-30T19:58:13.414Z,95886.63
2023-10-30T20:00:40.416Z,95882.00
2023-10-30T20:03:07.390Z,95886.88
2023-10-30T20:05:34.412Z,95901.16
2023-10-30T20:08:01.569Z,95903.63
2023-10-30T20:10:37.318Z,95902.09
2023-10-30T20:13:05.551Z,95907.75
2023-10-30T20:15:32.567Z,95908.28
2023-10-30T20:17:59.613Z,95914.59
2023-10-30T20:20:26.640Z,95914.94
2023-10-30T20:22:53.706Z,95917.03
2023-10-30T20:25:20.893Z,95925.75
2023-10-30T20:27:47.856Z,95917.16
2023-10-30T20:30:14.859Z,95917.97
2023-10-30T20:32:41.934Z,95919.81
2023-10-30T20:35:08.998Z,95911.50
2023-10-30T20:37:35.947Z,95912.84
2023-10-30T20:40:02.931Z,95916.06
2023-10-30T20:42:29.948Z,95914.72
2023-10-30T20:44:56.900Z,95913.84
2023-10-30T20:47:23.836Z,95915.00
2023-10-30T20:49:51.050Z,95923.78
2023-10-30T20:52:18.132Z,95924.91
2023-10-30T20:54:45.076Z,95929.41
2023-10-30T20:57:12.032Z,95932.63
2023-10-30T20:59:39.252Z,95930.25
2023-10-30T21:02:06.232Z,95937.53
2023-10-30T21:04:33.329Z,95937.31
2023-10-30T21:07:00.270Z,95949.38
2023-10-30T21:09:27.178Z,95962.16
2023-10-30T21:11:54.136Z,95962.16
2023-10-30T21:14:21.058Z,95963.78
2023-10-30T21:16:48.092Z,95973.75
2023-10-30T21:19:15.115Z,95969.25
2023-10-30T21:21:42.149Z,95975.06
2023-10-30T21:24:09.116Z,95981.88
2023-10-30T21:26:36.096Z,95976.19
2023-10-30T21:29:03.128Z,95984.59
2023-10-30T21:31:30.210Z,95982.25
2023-10-30T21:33:57.142Z,95987.56
2023-10-30T21:36:24.157Z,95982.72
2023-10-30T21:38:51.099Z,95971.28
2023-10-30T21:41:18.116Z,95968.72
2023-10-30T21:43:45.139Z,95965.75
2023-10-30T21:46:12.177Z,95967.94
2023-10-30T21:48:39.403Z,95969.03
2023-10-30T21:51:06.339Z,95971.16
2023-10-30T21:53:33.486Z,95972.69
2023-10-30T21:56:00.596Z,95966.03
2023-10-30T21:58:27.553Z,95971.66
2023-10-30T22:00:54.495Z,95966.34
2023-10-30T22:03:21.482Z,95969.53
2023-10-30T22:05:48.605Z,95968.19
2023-10-30T22:08:15.618Z,95979.78
2023-10-30T22:10:42.683Z,95980.31
2023-10-30T22:13:09.698Z,95985.69
2023-10-30T22:15:36.656Z,95992.34
2023-10-30T22:18:03.631Z,95998.84
2023-10-30T22:20:30.669Z,95994.28
2023-10-30T22:22:57.710Z,95996.69
2023-10-30T22:25:24.890Z,96007.69
2023-10-30T22:27:51.989Z,96006.91
2023-10-30T22:30:18.998Z,96001.91
2023-10-30T22:32:45.926Z,96005.81
2023-10-30T22:35:13.001Z,96015.50
2023-10-30T22:37:40.104Z,96008.47
2023-10-30T22:40:07.091Z,96011.47
2023-10-30T22:42:34.137Z,96014.94
2023-10-30T22:45:01.107Z,96012.13
2023-10-30T22:47:28.078Z,96013.97
2023-10-30T22:49:55.191Z,96022.75
2023-10-30T22:52:22.180Z,96036.03
2023-10-30T22:54:49.413Z,96026.69
2023-10-30T22:57:16.652Z,96042.00
2023-10-30T22:59:43.636Z,96038.28
2023-10-30T23:02:10.607Z,96047.59
2023-10-30T23:04:37.646Z,96048.91
2023-10-30T23:07:04.641Z,96047.94
2023-10-30T23:09:31.620Z,96049.84
2023-10-30T23:11:58.562Z,96048.00
2023-10-30T23:14:25.517Z,96060.63
2023-10-30T23:16:52.524Z,96070.59
2023-10-30T23:19:19.612Z,96081.31
2023-10-30T23:21:46.565Z,96083.16
2023-10-30T23:24:13.537Z,96088.00
2023-10-30T23:26:40.552Z,96080.56
2023-10-30T23:29:07.568Z,96086.72
2023-10-30T23:31:34.631Z,96084.03
2023-10-30T23:34:01.656Z,96086.72
2023-10-30T23:36:28.689Z,96080.81
2023-10-30T23:38:55.636Z,96092.41
2023-10-30T23:41:22.630Z,96089.16
2023-10-30T23:43:49.647Z,96092.66
2023-10-30T23:46:20.374Z,96092.38
2023-10-30T23:48:52.205Z,96092.13
2023-10-30T23:51:19.216Z,96098.28
2023-10-30T23:53:46.148Z,96096.41
2023-10-30T23:56:13.138Z,96099.91
2023-10-30T23:58:40.199Z,96101.66
